Adventure of The Seas — C6SA3 — position and weather

sailwx.info

Track history (hours):
 
Tides and Currents Weather Stations Pressure Air Temp Water Temp Dewpoint Dewpoint Depression Visibility Wind Speed Wind Dir Waves Ship Positions

Adventure of The Seas

Operator: Royal Caribbean Cruises Ltd

Last reported at 2016-Feb-08 00:33 UTC. Time now 2016-Feb-09 01:16 UTC.
Position N 18°04' W 064°54'.

Type: Passenger vessel. MMSI: 311263000.

Date/timePositionNaut miles runAvg speedWind from/ knotsBaromVisibWave heightAir tempDewpointWater temp
2016-Feb-08 00:33N 18°04' W 064°54'7 7.5
2016-Feb-07 23:33N 18°11' W 064°55'70 3.2
2016-Feb-07 01:33N 18°33' W 066°05'6 1.8
2016-Feb-06 22:24N 18°28' W 066°06'0 0.0
2016-Feb-06 21:24N 18°28' W 066°06'0 0.0
2016-Feb-06 19:33N 18°28' W 066°06'0 0.0
2016-Feb-06 15:15N 18°28' W 066°06'0 0.0
2016-Feb-06 09:30N 18°28' W 066°06'5 5.2
2016-Feb-06 08:33N 18°32' W 066°06'7412.4
2016-Feb-06 02:33N 18°09' W 064°52'  
2016-Feb-03 09:24N 15°35' W 061°41'5614.6
2016-Feb-03 05:34N 16°19' W 062°16'1514.6
2016-Feb-03 04:33N 16°31' W 062°26'1414.7
2016-Feb-03 03:33N 16°42' W 062°35'  
2016-Jan-31 01:31N 18°35' W 066°04'8 7.9
2016-Jan-31 00:33N 18°28' W 066°06'0 0.1
2016-Jan-30 22:30N 18°28' W 066°06'0 0.0
2016-Jan-30 20:30N 18°28' W 066°06'0 0.0
2016-Jan-30 19:33N 18°28' W 066°06'0 0.0
2016-Jan-30 18:33N 18°28' W 066°06'0 0.0
2016-Jan-30 17:24N 18°28' W 066°06'0 0.0
2016-Jan-30 16:27N 18°28' W 066°06'0 0.0
2016-Jan-30 15:30N 18°28' W 066°06'0 0.0
2016-Jan-30 14:33N 18°28' W 066°06'0 0.0
2016-Jan-30 13:27N 18°28' W 066°06'0 0.0
2016-Jan-30 12:30N 18°28' W 066°06'0 0.0
2016-Jan-30 11:27N 18°28' W 066°06'0 0.0
2016-Jan-30 10:30N 18°28' W 066°06'0 0.0
2016-Jan-30 09:33N 18°28' W 066°06'5 5.2
2016-Jan-30 08:33N 18°33' W 066°06'7212.0
2016-Jan-30 02:32N 18°10' W 064°54'  
Track history (hours):
 
Tides and Currents Weather Stations Pressure Air Temp Water Temp Dewpoint Dewpoint Depression Visibility Wind Speed Wind Dir Waves Ship Positions

Adventure of The Seas

Operator: Royal Caribbean Cruises Ltd

Last reported at 2016-Feb-08 00:33 UTC. Time now 2016-Feb-09 01:16 UTC.
Position N 18°04' W 064°54'.

Type: Passenger vessel. MMSI: 311263000.

Date/timePositionNaut miles runAvg speedWind from/ knotsBaromVisibWave heightAir tempDewpointWater temp
2016-Feb-08 00:33N 18°04' W 064°54'7 7.5
2016-Feb-07 23:33N 18°11' W 064°55'70 3.2
2016-Feb-07 01:33N 18°33' W 066°05'6 1.8
2016-Feb-06 22:24N 18°28' W 066°06'0 0.0
2016-Feb-06 21:24N 18°28' W 066°06'0 0.0
2016-Feb-06 19:33N 18°28' W 066°06'0 0.0
2016-Feb-06 15:15N 18°28' W 066°06'0 0.0
2016-Feb-06 09:30N 18°28' W 066°06'5 5.2
2016-Feb-06 08:33N 18°32' W 066°06'7412.4
2016-Feb-06 02:33N 18°09' W 064°52'  
2016-Feb-03 09:24N 15°35' W 061°41'5614.6
2016-Feb-03 05:34N 16°19' W 062°16'1514.6
2016-Feb-03 04:33N 16°31' W 062°26'1414.7
2016-Feb-03 03:33N 16°42' W 062°35'  
2016-Jan-31 01:31N 18°35' W 066°04'8 7.9
2016-Jan-31 00:33N 18°28' W 066°06'0 0.1
2016-Jan-30 22:30N 18°28' W 066°06'0 0.0
2016-Jan-30 20:30N 18°28' W 066°06'0 0.0
2016-Jan-30 19:33N 18°28' W 066°06'0 0.0
2016-Jan-30 18:33N 18°28' W 066°06'0 0.0
2016-Jan-30 17:24N 18°28' W 066°06'0 0.0
2016-Jan-30 16:27N 18°28' W 066°06'0 0.0
2016-Jan-30 15:30N 18°28' W 066°06'0 0.0
2016-Jan-30 14:33N 18°28' W 066°06'0 0.0
2016-Jan-30 13:27N 18°28' W 066°06'0 0.0
2016-Jan-30 12:30N 18°28' W 066°06'0 0.0
2016-Jan-30 11:27N 18°28' W 066°06'0 0.0
2016-Jan-30 10:30N 18°28' W 066°06'0 0.0
2016-Jan-30 09:33N 18°28' W 066°06'5 5.2
2016-Jan-30 08:33N 18°33' W 066°06'7212.0
2016-Jan-30 02:32N 18°10' W 064°54'  

Dump ship's entire track history